KRPJ

Details ICAO KRPJ
Name ROCHELLE MUNI KORITZ FIELD
Region United States
Timezone America/Chicago (UTC-6.0)
Plans Departing 4
Arriving 2
Stats Elevation 781 ft / 238 m (AMSL)
Location 41.893006° -89.078278°
Runways 1
Magnetic Variation 2.791° W
Sunrise 2017-12-15 13:18:34 UTC / 2017-12-15 07:18:34 Local
Sunset 2017-12-15 22:27:23 UTC / 2017-12-15 16:27:23 Local
Advertisement - Login to hide

Runways

ID Width Length Bearing (true) Bearing (mag) Surface Threshold Offset Overrun Length
07 75 ft / 23 m 4,217 ft / 1,285 m 69.89° 72.68° Asphalt 0 ft / 0 m 0 ft / 0 m
25 75 ft / 23 m 4,217 ft / 1,285 m 249.90° 252.69° Asphalt 0 ft / 0 m 0 ft / 0 m

Map

Weather


0- 5 10 15 20 25 30 35+ Temperature / ° C

Clouds and Precipitation
Forecast for 2017-12-16 06:00 UTC. Updated 9 minutes ago

Ground ~20,000 ft ~40,000 ft Winds

METAR

KRPJ 160315Z AUTO 20011KT 10SM SCT060 OVC090 01/M05 A2989 RMK AO2 T00061047

TAF

Not found

Frequencies

Recorded 119.67 MHz AWOS 3
Approach 126.00 MHz ROCKFORD APP/DEP
Unicom 122.80 MHz CTAF/UNICOM
Warning: Do not use this data for real-world aviation or navigation. No guarantee of current accuracy is given.